Time;durP1;ratioP1;P1;durP2;ratioP2;P2;SDS_P1;SDS_P2;PMS_P1;PMS_P2;Temp;Humidity;BMP_temperature;BMP_pressure;BME280_temperature;BME280_humidity;BME280_pressure;Samples;Min_cycle;Max_cycle;Signal;HPM_P1;HPM_P2
2022/06/01 00:01:34;;;;;;;12.18;10.98;;;12.90;99.90;;;;;;4882842;29;20116;-77
2022/06/01 00:04:00;;;;;;;11.38;10.27;;;12.80;99.90;;;;;;4869299;29;20044;-76
2022/06/01 00:06:26;;;;;;;12.52;10.82;;;12.80;99.90;;;;;;4899457;29;20378;-77
2022/06/01 00:08:52;;;;;;;11.88;10.30;;;12.80;99.90;;;;;;4901120;29;20044;-76
2022/06/01 00:11:19;;;;;;;11.73;10.57;;;12.70;99.90;;;;;;4897854;29;20052;-82
2022/06/01 00:13:45;;;;;;;12.23;10.10;;;12.70;99.90;;;;;;4909505;29;20043;-82
2022/06/01 00:16:11;;;;;;;15.07;10.57;;;12.70;99.90;;;;;;4887008;29;20492;-82
2022/06/01 00:18:37;;;;;;;11.70;10.50;;;12.70;99.90;;;;;;4881082;29;20047;-82
2022/06/01 00:21:04;;;;;;;12.40;11.05;;;12.60;99.90;;;;;;4886416;29;20496;-83
2022/06/01 00:23:30;;;;;;;13.20;10.93;;;12.60;99.90;;;;;;4883734;29;20461;-83
2022/06/01 00:25:58;;;;;;;12.13;10.82;;;12.60;99.90;;;;;;4884728;29;20048;-82
2022/06/01 00:28:24;;;;;;;12.20;10.90;;;12.50;99.90;;;;;;4901598;29;20040;-82
2022/06/01 00:30:50;;;;;;;12.55;11.23;;;12.50;99.90;;;;;;4904371;29;20047;-82
2022/06/01 00:33:16;;;;;;;12.55;11.25;;;12.50;99.90;;;;;;4863708;29;20036;-82
2022/06/01 00:35:42;;;;;;;12.82;11.55;;;12.50;99.90;;;;;;4907455;29;20250;-82
2022/06/01 00:38:09;;;;;;;16.00;11.48;;;12.50;99.90;;;;;;4885919;29;20055;-82
2022/06/01 00:40:34;;;;;;;13.65;12.23;;;12.50;99.90;;;;;;4886557;29;20430;-82
2022/06/01 00:43:15;;;;;;;12.57;11.27;;;12.50;99.90;;;;;;4904208;29;20116;-82
2022/06/01 00:45:41;;;;;;;12.57;11.30;;;12.50;99.90;;;;;;4897189;29;20048;-82
2022/06/01 00:48:07;;;;;;;12.43;11.13;;;12.50;99.90;;;;;;4895428;29;20060;-82
2022/06/01 00:50:39;;;;;;;14.52;10.48;;;12.50;99.90;;;;;;4897440;29;20990;-82
2022/06/01 00:53:19;;;;;;;12.75;11.43;;;12.50;99.90;;;;;;4901400;29;20505;-82
2022/06/01 00:55:48;;;;;;;13.23;11.77;;;12.50;99.90;;;;;;4901460;29;20040;-81
2022/06/01 00:58:21;;;;;;;12.65;11.35;;;12.50;99.90;;;;;;4902652;29;20044;-82
2022/06/01 01:00:50;;;;;;;11.85;10.65;;;12.50;99.90;;;;;;4902206;29;20434;-82
2022/06/01 01:03:19;;;;;;;12.38;10.93;;;12.50;99.90;;;;;;4902747;29;20052;-83
2022/06/01 01:05:54;;;;;;;12.50;11.23;;;12.60;99.90;;;;;;4902687;29;20051;-82
2022/06/01 01:08:22;;;;;;;12.73;11.18;;;12.50;99.90;;;;;;4917533;29;20103;-82
2022/06/01 01:10:48;;;;;;;14.25;11.20;;;12.50;99.90;;;;;;4899492;29;20044;-82
2022/06/01 01:13:14;;;;;;;12.80;11.07;;;12.50;99.90;;;;;;4901000;29;20044;-82
2022/06/01 01:15:51;;;;;;;12.07;10.88;;;12.50;99.90;;;;;;4889138;29;20048;-82
2022/06/01 01:18:20;;;;;;;12.27;11.05;;;12.50;99.90;;;;;;4897812;29;20099;-82
2022/06/01 01:21:12;;;;;;;12.40;11.20;;;12.50;99.90;;;;;;4903885;29;20083;-81
2022/06/01 01:24:14;;;;;;;13.10;11.02;;;12.50;99.90;;;;;;4884228;29;20063;-83
2022/06/01 01:26:43;;;;;;;11.80;10.60;;;12.50;99.90;;;;;;4905812;29;20043;-82
2022/06/01 01:29:10;;;;;;;12.32;10.75;;;12.50;99.90;;;;;;4901678;29;20157;-82
2022/06/01 01:31:38;;;;;;;11.77;10.68;;;12.50;99.90;;;;;;4888240;29;20071;-82
2022/06/01 01:34:05;;;;;;;12.00;10.80;;;12.50;99.90;;;;;;4904668;29;20382;-82
2022/06/01 01:36:36;;;;;;;11.18;9.98;;;12.40;99.90;;;;;;4900396;29;20055;-82
2022/06/01 01:39:07;;;;;;;11.82;10.50;;;12.40;99.90;;;;;;4906186;29;20078;-82
2022/06/01 01:41:56;;;;;;;10.95;9.85;;;12.40;99.90;;;;;;4916136;29;20054;-82
2022/06/01 01:44:26;;;;;;;10.70;9.60;;;12.40;99.90;;;;;;4868408;29;20045;-81
2022/06/01 01:46:53;;;;;;;10.10;9.10;;;12.40;99.90;;;;;;4917503;29;20040;-82
2022/06/01 01:49:24;;;;;;;11.35;10.10;;;12.30;99.90;;;;;;4891386;29;20047;-82
2022/06/01 01:51:53;;;;;;;11.05;9.70;;;12.30;99.90;;;;;;4889729;29;20397;-82
2022/06/01 01:54:38;;;;;;;11.57;10.18;;;12.30;99.90;;;;;;4878238;29;20048;-82
2022/06/01 01:57:15;;;;;;;11.10;10.00;;;12.30;99.90;;;;;;4885303;29;20382;-82
2022/06/01 02:00:34;;;;;;;11.20;10.10;;;12.30;99.90;;;;;;4900498;29;20043;-82
2022/06/01 02:03:12;;;;;;;12.23;10.45;;;12.30;99.90;;;;;;4835856;29;20052;-83
2022/06/01 02:06:09;;;;;;;11.13;10.02;;;12.30;99.90;;;;;;4896602;29;20044;-82
2022/06/01 02:08:54;;;;;;;11.50;10.40;;;12.30;99.90;;;;;;4916781;29;20048;-83
2022/06/01 02:14:51;;;;;;;12.70;11.35;;;12.20;99.90;;;;;;4912755;29;20048;-81
2022/06/01 02:17:23;;;;;;;12.50;11.20;;;12.20;99.90;;;;;;4922729;29;20048;-84
2022/06/01 02:19:57;;;;;;;12.90;11.40;;;12.20;99.90;;;;;;4904284;29;20520;-83
2022/06/01 02:22:23;;;;;;;14.07;12.57;;;12.20;99.90;;;;;;4898767;29;20075;-82
2022/06/01 02:24:49;;;;;;;13.20;11.88;;;12.20;99.90;;;;;;4904691;29;20172;-83
2022/06/01 02:27:16;;;;;;;12.68;11.48;;;12.10;99.90;;;;;;4903242;29;20519;-82
2022/06/01 02:29:48;;;;;;;13.55;12.23;;;12.10;99.90;;;;;;4889367;29;20047;-82
2022/06/01 02:32:15;;;;;;;14.15;12.68;;;12.00;99.90;;;;;;4905868;29;20036;-82
2022/06/01 02:34:43;;;;;;;14.27;12.60;;;12.00;99.90;;;;;;4887335;29;20068;-83
2022/06/01 02:37:10;;;;;;;14.25;12.45;;;11.90;99.90;;;;;;4887760;29;20107;-82
2022/06/01 02:39:39;;;;;;;14.20;12.85;;;11.90;99.90;;;;;;4893946;29;20047;-82
2022/06/01 02:42:25;;;;;;;14.93;13.43;;;11.90;99.90;;;;;;4885083;29;20507;-82
2022/06/01 02:45:04;;;;;;;14.18;12.80;;;11.80;99.90;;;;;;4902796;29;20036;-82
2022/06/01 02:47:32;;;;;;;15.40;13.80;;;11.80;99.90;;;;;;4908304;29;20040;-82
2022/06/01 02:50:00;;;;;;;15.27;13.68;;;11.70;99.90;;;;;;4902876;29;20564;-82
2022/06/01 02:52:27;;;;;;;14.88;13.38;;;11.70;99.90;;;;;;4891420;29;20054;-82
2022/06/01 02:54:53;;;;;;;15.90;14.35;;;11.70;99.90;;;;;;4903306;29;20127;-82
2022/06/01 02:57:19;;;;;;;15.80;14.20;;;11.60;99.90;;;;;;4922818;29;20058;-82
2022/06/01 02:59:46;;;;;;;15.95;14.20;;;11.60;99.90;;;;;;4906038;29;20458;-82
2022/06/01 03:02:12;;;;;;;17.10;14.52;;;11.60;99.90;;;;;;4888541;29;20051;-82
2022/06/01 03:04:40;;;;;;;14.40;12.90;;;11.60;99.90;;;;;;4903627;29;20035;-82
2022/06/01 03:07:06;;;;;;;15.77;14.18;;;11.60;99.90;;;;;;4903839;29;20043;-82
2022/06/01 03:09:32;;;;;;;15.98;14.27;;;11.60;99.90;;;;;;4900875;29;20405;-82
2022/06/01 03:11:58;;;;;;;17.30;14.57;;;11.50;99.90;;;;;;4901609;29;20055;-82
2022/06/01 03:14:25;;;;;;;15.95;14.25;;;11.50;99.90;;;;;;4892962;29;20508;-82
2022/06/01 03:16:51;;;;;;;16.00;14.40;;;11.50;99.90;;;;;;4899494;29;20043;-82
2022/06/01 03:19:17;;;;;;;17.40;15.60;;;11.50;99.90;;;;;;4911418;29;20036;-82
2022/06/01 03:21:43;;;;;;;16.63;14.88;;;11.50;99.90;;;;;;4885256;29;20051;-82
2022/06/01 03:24:09;;;;;;;17.10;15.30;;;11.50;99.90;;;;;;4909881;29;20146;-82
2022/06/01 03:26:35;;;;;;;17.55;15.68;;;11.70;99.90;;;;;;4915317;29;20712;-82
2022/06/01 03:29:02;;;;;;;17.65;15.85;;;11.50;99.90;;;;;;4907505;29;20044;-83
2022/06/01 03:31:27;;;;;;;18.02;16.13;;;11.50;99.90;;;;;;4909736;29;20040;-82
2022/06/01 03:33:53;;;;;;;20.05;17.75;;;11.60;99.90;;;;;;4891332;29;20042;-82
2022/06/01 03:36:19;;;;;;;20.45;17.63;;;11.60;99.90;;;;;;4906962;29;20131;-82
2022/06/01 03:38:45;;;;;;;21.60;18.77;;;11.60;99.90;;;;;;4920541;29;20048;-82
2022/06/01 03:41:11;;;;;;;21.52;18.15;;;11.60;99.90;;;;;;4888909;29;20047;-82
2022/06/01 03:46:31;;;;;;;22.00;19.55;;;11.60;99.90;;;;;;4889236;29;20051;-82
2022/06/01 03:48:57;;;;;;;22.20;19.23;;;11.60;99.90;;;;;;4899956;29;20045;-82
2022/06/01 03:51:26;;;;;;;22.10;19.70;;;11.60;99.90;;;;;;4871685;29;20056;-82
2022/06/01 03:53:51;;;;;;;21.30;19.15;;;11.60;99.90;;;;;;4872931;29;20045;-81
2022/06/01 03:56:17;;;;;;;23.90;21.40;;;11.60;99.90;;;;;;4884262;29;20048;-82
2022/06/01 03:58:43;;;;;;;22.20;19.88;;;11.70;99.90;;;;;;4868920;29;20473;-81
2022/06/01 04:01:09;;;;;;;24.00;21.50;;;11.70;99.90;;;;;;4883380;29;20505;-81
2022/06/01 04:03:35;;;;;;;23.02;20.67;;;11.60;99.90;;;;;;4862381;29;20045;-81
2022/06/01 04:06:01;;;;;;;23.35;20.85;;;11.60;99.90;;;;;;4847905;29;20399;-81
2022/06/01 04:08:27;;;;;;;23.92;21.27;;;11.70;99.90;;;;;;4869787;29;20041;-81
2022/06/01 04:10:53;;;;;;;24.98;22.33;;;11.60;99.90;;;;;;4865613;29;20051;-81
2022/06/01 04:13:24;;;;;;;23.98;21.45;;;11.70;99.90;;;;;;4884670;29;20036;-81
2022/06/01 04:15:50;;;;;;;25.42;21.67;;;11.70;99.90;;;;;;4887932;29;20044;-81
2022/06/01 04:18:15;;;;;;;25.75;22.40;;;11.60;99.90;;;;;;4869896;29;20410;-81
2022/06/01 04:20:42;;;;;;;25.10;21.60;;;11.70;99.90;;;;;;4885759;29;20144;-81
2022/06/01 04:23:07;;;;;;;25.58;22.25;;;11.70;99.90;;;;;;4884897;29;20047;-82
2022/06/01 04:25:33;;;;;;;25.10;22.40;;;11.70;99.90;;;;;;4873457;29;20048;-80
2022/06/01 04:27:59;;;;;;;23.55;20.85;;;11.70;99.90;;;;;;4868477;29;20080;-81
2022/06/01 04:30:25;;;;;;;23.95;21.35;;;11.70;99.90;;;;;;4886156;29;20055;-81
2022/06/01 04:32:52;;;;;;;23.05;20.40;;;11.60;99.90;;;;;;4870058;29;20048;-81
2022/06/01 04:35:21;;;;;;;21.15;18.95;;;11.70;99.90;;;;;;4846051;29;20032;-81
2022/06/01 04:37:46;;;;;;;23.67;19.98;;;11.70;99.90;;;;;;4882857;29;20045;-81
2022/06/01 04:40:14;;;;;;;23.50;20.65;;;11.70;99.90;;;;;;4883770;29;20057;-81
2022/06/01 04:42:40;;;;;;;23.25;20.85;;;11.70;99.90;;;;;;4869285;29;20048;-81
2022/06/01 04:45:09;;;;;;;22.30;19.88;;;11.80;99.90;;;;;;4865567;29;20155;-81
2022/06/01 04:47:35;;;;;;;23.17;20.67;;;11.80;99.90;;;;;;4863332;29;20482;-82
2022/06/01 04:50:01;;;;;;;22.90;19.80;;;11.80;99.90;;;;;;4859355;29;20049;-81
2022/06/01 04:52:27;;;;;;;22.80;20.15;;;11.90;99.90;;;;;;4888855;29;20052;-81
2022/06/01 04:54:52;;;;;;;25.60;21.08;;;11.90;99.90;;;;;;4860817;29;20401;-82
2022/06/01 04:57:18;;;;;;;23.65;20.88;;;11.90;99.90;;;;;;4871994;29;20032;-81
2022/06/01 04:59:44;;;;;;;24.10;21.50;;;11.90;99.90;;;;;;4884050;29;20079;-81
2022/06/01 05:02:09;;;;;;;24.27;21.73;;;12.00;99.90;;;;;;4880425;29;20041;-81
2022/06/01 05:04:35;;;;;;;25.48;22.25;;;12.00;99.90;;;;;;4883627;29;20486;-81
2022/06/01 05:07:02;;;;;;;28.50;24.10;;;12.00;99.90;;;;;;4888407;29;20040;-81
2022/06/01 05:09:28;;;;;;;24.85;22.23;;;12.00;99.90;;;;;;4881484;29;20096;-81
2022/06/01 05:11:54;;;;;;;26.38;23.58;;;12.00;99.90;;;;;;4886916;29;20049;-82
2022/06/01 05:14:20;;;;;;;25.63;22.98;;;12.10;99.90;;;;;;4860603;29;20076;-81
2022/06/01 05:16:45;;;;;;;27.58;23.10;;;12.10;99.90;;;;;;4886159;29;20060;-82
2022/06/01 05:19:11;;;;;;;27.85;24.83;;;12.10;99.90;;;;;;4882884;29;20523;-81
2022/06/01 05:21:37;;;;;;;27.63;23.27;;;12.20;99.90;;;;;;4872672;29;20641;-81
2022/06/01 05:24:03;;;;;;;27.95;24.73;;;12.10;99.90;;;;;;4892881;29;20163;-81
2022/06/01 05:26:29;;;;;;;29.35;26.00;;;12.20;99.90;;;;;;4884064;29;20044;-81
2022/06/01 05:28:54;;;;;;;28.92;25.48;;;12.20;99.90;;;;;;4849450;29;20032;-82
2022/06/01 05:31:20;;;;;;;29.20;26.17;;;12.20;99.90;;;;;;4878428;29;20485;-81
2022/06/01 05:33:47;;;;;;;28.88;25.75;;;12.20;99.90;;;;;;4871290;29;20136;-81
2022/06/01 05:36:15;;;;;;;28.00;25.00;;;12.20;99.90;;;;;;4867309;29;20096;-81
2022/06/01 05:38:42;;;;;;;28.05;25.05;;;12.20;99.90;;;;;;4885495;29;20127;-81
2022/06/01 05:41:08;;;;;;;27.20;24.33;;;12.20;99.90;;;;;;4885414;29;20044;-81
2022/06/01 05:43:34;;;;;;;27.90;23.83;;;12.30;99.90;;;;;;4895858;29;20412;-81
2022/06/01 05:46:00;;;;;;;25.17;21.58;;;12.30;99.90;;;;;;4879076;29;20056;-81
2022/06/01 05:48:26;;;;;;;24.23;20.58;;;12.30;99.90;;;;;;4867965;29;20053;-81
2022/06/01 05:50:51;;;;;;;21.02;18.83;;;12.40;99.90;;;;;;4866035;29;20426;-81
2022/06/01 05:53:17;;;;;;;19.80;17.70;;;12.40;99.90;;;;;;4884045;29;20060;-81
2022/06/01 05:55:43;;;;;;;17.90;15.82;;;12.50;99.90;;;;;;4870278;29;20095;-81
2022/06/01 05:58:17;;;;;;;18.80;15.13;;;12.60;99.90;;;;;;4903288;29;20043;-81
2022/06/01 06:00:44;;;;;;;18.35;15.93;;;12.70;99.90;;;;;;4904746;29;20433;-81
2022/06/01 06:03:11;;;;;;;17.80;14.35;;;12.70;99.90;;;;;;4899955;29;20076;-81
2022/06/01 06:08:22;;;;;;;17.23;15.43;;;12.90;99.90;;;;;;4901375;29;20104;-81
2022/06/01 06:10:48;;;;;;;16.42;14.60;;;13.00;99.90;;;;;;4896653;29;20036;-82
2022/06/01 06:13:14;;;;;;;15.52;13.88;;;13.10;99.90;;;;;;4878561;29;20051;-81
2022/06/01 06:15:41;;;;;;;17.15;14.60;;;13.10;99.90;;;;;;4901384;29;20044;-81
2022/06/01 06:18:07;;;;;;;13.73;12.07;;;13.10;99.90;;;;;;4901722;29;20051;-81
2022/06/01 06:20:33;;;;;;;13.50;12.10;;;13.20;99.90;;;;;;4898359;29;20409;-81
2022/06/01 06:22:59;;;;;;;14.18;12.13;;;13.20;99.90;;;;;;4885387;29;20052;-82
2022/06/01 06:25:25;;;;;;;13.80;12.20;;;13.10;99.90;;;;;;4888652;29;20091;-82
2022/06/01 06:27:51;;;;;;;13.88;12.38;;;13.10;99.90;;;;;;4901323;29;20056;-81
2022/06/01 06:30:19;;;;;;;14.15;12.65;;;13.10;99.90;;;;;;4897194;29;20051;-81
2022/06/01 06:32:45;;;;;;;13.52;11.82;;;13.10;99.90;;;;;;4885108;29;20032;-82
2022/06/01 06:35:12;;;;;;;14.15;12.07;;;13.20;99.90;;;;;;4907847;29;20040;-82
2022/06/01 06:37:38;;;;;;;12.93;11.52;;;13.30;99.90;;;;;;4879977;29;20049;-82
2022/06/01 06:40:05;;;;;;;14.48;11.43;;;13.30;99.90;;;;;;4898914;29;20131;-82
2022/06/01 06:42:30;;;;;;;12.10;10.90;;;13.30;99.90;;;;;;4904588;29;20044;-82
2022/06/01 06:44:56;;;;;;;13.60;11.85;;;13.30;99.90;;;;;;4912552;29;20040;-82
2022/06/01 06:47:22;;;;;;;15.27;11.95;;;13.20;99.90;;;;;;4901310;29;20040;-82
2022/06/01 06:49:48;;;;;;;12.30;11.00;;;13.20;99.90;;;;;;4875070;29;20041;-82
2022/06/01 06:52:13;;;;;;;13.10;11.80;;;13.30;99.90;;;;;;4890172;29;20071;-81
2022/06/01 06:54:40;;;;;;;17.30;12.80;;;13.40;99.90;;;;;;4907883;29;20044;-82
2022/06/01 06:57:06;;;;;;;14.27;11.80;;;13.50;99.90;;;;;;4900433;29;20044;-82
2022/06/01 06:59:32;;;;;;;12.43;11.15;;;13.60;99.90;;;;;;4916711;29;20044;-81
2022/06/01 07:01:58;;;;;;;12.77;11.48;;;13.60;99.90;;;;;;4906797;29;20354;-80
2022/06/01 07:04:24;;;;;;;12.60;10.85;;;13.50;99.90;;;;;;4884209;29;20043;-82
2022/06/01 07:06:49;;;;;;;12.48;10.82;;;13.50;99.90;;;;;;4902572;29;20119;-82
2022/06/01 07:09:15;;;;;;;12.63;10.30;;;13.60;99.90;;;;;;4903531;29;20477;-82
2022/06/01 07:11:41;;;;;;;13.18;11.15;;;13.60;99.90;;;;;;4886274;29;20365;-82
2022/06/01 07:14:07;;;;;;;12.32;10.63;;;13.70;99.90;;;;;;4887239;29;20130;-83
2022/06/01 07:16:34;;;;;;;12.05;10.70;;;13.80;99.90;;;;;;4893302;29;20470;-81
2022/06/01 07:19:02;;;;;;;11.93;10.18;;;14.00;99.90;;;;;;4895107;29;20544;-81
2022/06/01 07:21:29;;;;;;;11.45;9.93;;;14.00;99.90;;;;;;4902803;29;20040;-80
2022/06/01 07:23:55;;;;;;;11.35;10.05;;;14.10;99.90;;;;;;4899829;29;20523;-82
2022/06/01 07:26:27;;;;;;;10.35;9.18;;;14.10;99.90;;;;;;4885596;29;20140;-82
2022/06/01 07:28:53;;;;;;;10.60;9.50;;;14.10;99.90;;;;;;4901088;29;20048;-81
2022/06/01 07:31:20;;;;;;;10.65;9.20;;;14.10;99.90;;;;;;4864318;29;20398;-82
2022/06/01 07:33:46;;;;;;;13.80;9.82;;;14.10;99.90;;;;;;4903658;29;20044;-82
2022/06/01 07:36:14;;;;;;;12.32;9.82;;;14.00;99.90;;;;;;4907454;29;20040;-82
2022/06/01 07:44:25;;;;;;;13.45;11.00;;;13.80;99.90;;;;;;4894455;29;20382;-83
2022/06/01 07:46:51;;;;;;;21.45;12.07;;;13.60;99.90;;;;;;4877625;29;20127;-84
2022/06/01 07:49:18;;;;;;;21.67;12.45;;;13.50;99.90;;;;;;4882887;29;20048;-84
2022/06/01 07:51:44;;;;;;;16.27;12.35;;;13.40;99.90;;;;;;4887984;29;20137;-84
2022/06/01 07:54:09;;;;;;;16.60;11.95;;;13.20;99.90;;;;;;4889404;29;20089;-84
2022/06/01 07:56:35;;;;;;;7.43;6.53;;;13.10;99.90;;;;;;4894614;29;20366;-83
2022/06/01 07:59:03;;;;;;;6.43;5.25;;;13.00;99.90;;;;;;4918372;29;20130;-83
2022/06/01 08:01:29;;;;;;;8.70;3.90;;;13.00;99.90;;;;;;4900263;29;20562;-86
2022/06/01 08:03:57;;;;;;;9.75;4.63;;;12.90;99.90;;;;;;4901289;29;20051;-84
2022/06/01 08:06:27;;;;;;;8.25;5.28;;;12.90;99.90;;;;;;4884866;29;20048;-83
2022/06/01 08:08:53;;;;;;;8.13;5.97;;;12.80;99.90;;;;;;4884624;29;20048;-83
2022/06/01 08:11:20;;;;;;;8.63;5.75;;;12.80;99.90;;;;;;4920253;29;20043;-84
2022/06/01 08:13:46;;;;;;;9.38;6.93;;;12.70;99.90;;;;;;4901618;29;20039;-84
2022/06/01 08:16:12;;;;;;;9.70;7.65;;;12.90;99.90;;;;;;4903159;29;20489;-84
2022/06/01 08:18:38;;;;;;;11.52;7.65;;;13.20;99.90;;;;;;4883936;29;20075;-84
2022/06/01 08:21:04;;;;;;;11.27;8.50;;;13.60;99.90;;;;;;4899655;29;20095;-83
2022/06/01 08:23:32;;;;;;;11.55;8.77;;;14.00;99.90;;;;;;4900281;29;20118;-83
2022/06/01 08:25:58;;;;;;;10.18;9.07;;;14.40;99.90;;;;;;4890891;29;20040;-83
2022/06/01 08:28:25;;;;;;;7.65;6.88;;;14.80;99.90;;;;;;4904027;29;20405;-83
2022/06/01 08:30:52;;;;;;;8.82;8.02;;;15.10;99.90;;;;;;4891161;29;21453;-82
2022/06/01 08:33:18;;;;;;;8.65;7.80;;;15.30;99.90;;;;;;4889762;29;20040;-83
2022/06/01 08:35:47;;;;;;;9.30;6.18;;;15.50;99.90;;;;;;4903240;29;20043;-82
2022/06/01 08:38:13;;;;;;;7.00;5.45;;;15.70;99.90;;;;;;4889592;29;20073;-83
2022/06/01 08:40:45;;;;;;;6.50;4.72;;;15.90;99.90;;;;;;4905049;29;20044;-83
2022/06/01 08:43:14;;;;;;;7.88;5.13;;;16.10;99.90;;;;;;4889253;29;20083;-82
2022/06/01 08:45:47;;;;;;;6.22;5.63;;;16.40;99.90;;;;;;4897519;29;20067;-82
2022/06/01 08:48:21;;;;;;;5.72;4.40;;;16.50;99.90;;;;;;4910562;29;20513;-82
2022/06/01 08:50:48;;;;;;;4.00;3.45;;;16.60;99.90;;;;;;4901311;29;20039;-82
2022/06/01 08:53:16;;;;;;;3.88;3.22;;;16.40;99.90;;;;;;4884270;29;20052;-82
2022/06/01 08:55:55;;;;;;;5.22;3.17;;;16.40;99.90;;;;;;4886416;29;20055;-84
2022/06/01 08:58:33;;;;;;;4.47;2.60;;;16.10;99.90;;;;;;4901076;29;20076;-82
2022/06/01 09:01:12;;;;;;;3.70;3.13;;;16.00;99.90;;;;;;4900131;29;20075;-82
2022/06/01 09:04:22;;;;;;;3.50;2.50;;;15.90;99.90;;;;;;4903400;29;20051;-82
2022/06/01 09:06:53;;;;;;;2.83;2.10;;;16.10;99.90;;;;;;4899692;29;20460;-82
2022/06/01 09:10:15;;;;;;;2.30;2.10;;;16.40;99.90;;;;;;4901310;29;20036;-81
2022/06/01 09:12:41;;;;;;;2.70;2.00;;;16.80;99.90;;;;;;4872698;29;20417;-81
2022/06/01 09:15:29;;;;;;;2.10;1.58;;;17.00;99.90;;;;;;4896438;29;20040;-81
2022/06/01 09:17:55;;;;;;;2.42;1.50;;;17.20;99.90;;;;;;4899582;29;20079;-81
2022/06/01 09:23:12;;;;;;;1.85;1.30;;;17.50;99.90;;;;;;4903328;29;20044;-81
2022/06/01 09:25:38;;;;;;;3.35;1.75;;;17.50;99.90;;;;;;4897504;29;20044;-81
2022/06/01 09:28:21;;;;;;;2.58;1.80;;;17.60;99.90;;;;;;4897362;29;20052;-81
2022/06/01 09:30:53;;;;;;;3.03;1.80;;;17.70;99.90;;;;;;4904850;29;20036;-81
2022/06/01 09:33:38;;;;;;;3.22;1.92;;;17.50;99.90;;;;;;4886797;29;20103;-81
2022/06/01 09:36:06;;;;;;;4.43;1.33;;;17.30;99.90;;;;;;4888927;29;20050;-81
2022/06/01 09:38:49;;;;;;;2.08;1.30;;;17.00;99.90;;;;;;4899022;29;20568;-81
2022/06/01 09:41:24;;;;;;;1.50;1.38;;;17.00;99.90;;;;;;4899862;29;20551;-81
2022/06/01 09:44:00;;;;;;;2.13;1.52;;;17.10;99.90;;;;;;4898305;29;20480;-81
2022/06/01 09:46:34;;;;;;;2.42;1.83;;;17.20;99.90;;;;;;4915486;29;20075;-81
2022/06/01 09:49:09;;;;;;;3.65;1.60;;;17.10;99.90;;;;;;4899110;29;20048;-81
2022/06/01 09:51:39;;;;;;;2.85;1.67;;;17.00;99.90;;;;;;4896534;29;20080;-81
2022/06/01 09:54:19;;;;;;;2.90;1.90;;;16.90;99.90;;;;;;4891399;29;20056;-81
2022/06/01 09:56:45;;;;;;;3.15;2.20;;;17.00;99.90;;;;;;4890430;29;20032;-81
2022/06/01 10:07:43;;;;;;;2.78;1.65;;;17.30;99.90;;;;;;4913731;29;20052;-81
2022/06/01 10:10:24;;;;;;;2.95;1.70;;;17.30;99.90;;;;;;4899044;29;20048;-81
2022/06/01 10:12:54;;;;;;;3.10;1.77;;;17.20;99.90;;;;;;4900820;29;20741;-81
2022/06/01 10:15:19;;;;;;;2.38;1.80;;;17.10;99.90;;;;;;4900531;29;20048;-81
2022/06/01 10:17:51;;;;;;;3.08;1.90;;;17.20;99.90;;;;;;4897953;29;20040;-81
2022/06/01 10:20:37;;;;;;;2.88;2.00;;;17.10;99.90;;;;;;4899432;29;20051;-81
2022/06/01 10:23:18;;;;;;;3.35;2.10;;;16.90;99.90;;;;;;4900298;29;20513;-81
2022/06/01 10:26:11;;;;;;;2.25;1.95;;;16.70;99.90;;;;;;4883529;29;20039;-81
2022/06/01 10:28:41;;;;;;;2.83;1.65;;;16.50;99.90;;;;;;4899956;29;20131;-81
2022/06/01 10:31:27;;;;;;;2.28;1.30;;;16.20;99.90;;;;;;4887146;29;20064;-81
2022/06/01 10:34:09;;;;;;;3.05;1.05;;;15.90;99.90;;;;;;4894927;29;20048;-82
2022/06/01 10:36:51;;;;;;;2.00;1.30;;;15.70;99.90;;;;;;4900175;29;20047;-82
2022/06/01 10:39:25;;;;;;;2.95;1.42;;;15.50;99.90;;;;;;4899455;29;20160;-81
2022/06/01 10:42:10;;;;;;;3.75;1.33;;;15.30;99.90;;;;;;4896349;29;20493;-81
2022/06/01 10:44:52;;;;;;;3.50;1.30;;;15.20;99.90;;;;;;4897177;29;20537;-81
2022/06/01 10:47:42;;;;;;;3.20;1.30;;;15.20;99.90;;;;;;4884603;29;20044;-81
2022/06/01 10:50:20;;;;;;;1.60;1.20;;;15.30;99.90;;;;;;4895706;29;20135;-81
2022/06/01 10:52:58;;;;;;;3.40;1.20;;;15.20;99.90;;;;;;4894377;29;20059;-81
2022/06/01 10:55:28;;;;;;;1.17;1.08;;;15.20;99.90;;;;;;4886359;29;20048;-81
2022/06/01 10:57:58;;;;;;;1.52;0.90;;;15.40;99.90;;;;;;4895703;29;20040;-81
2022/06/01 11:00:32;;;;;;;1.73;1.00;;;15.50;99.90;;;;;;4895425;29;20089;-81
2022/06/01 11:03:25;;;;;;;3.35;1.00;;;15.50;99.90;;;;;;4889497;29;20044;-82
2022/06/01 11:06:08;;;;;;;5.22;1.30;;;15.50;99.90;;;;;;4871471;29;20052;-81
2022/06/01 11:08:46;;;;;;;1.48;0.80;;;15.60;99.90;;;;;;4896820;29;20047;-81
2022/06/01 11:11:27;;;;;;;1.35;0.60;;;15.70;99.90;;;;;;4887067;29;20044;-81
2022/06/01 11:14:05;;;;;;;2.85;0.70;;;15.80;99.90;;;;;;4884795;29;20062;-81
2022/06/01 11:16:55;;;;;;;2.13;0.70;;;15.90;99.90;;;;;;4901635;29;20076;-81
2022/06/01 11:19:33;;;;;;;0.95;0.70;;;16.00;99.90;;;;;;4902200;29;20040;-81
2022/06/01 11:22:12;;;;;;;1.38;0.85;;;16.00;99.90;;;;;;4903186;29;20571;-81
2022/06/01 11:25:03;;;;;;;1.95;0.77;;;16.00;99.90;;;;;;4886139;29;20044;-81
2022/06/01 11:27:44;;;;;;;1.65;0.80;;;15.90;99.90;;;;;;4902051;29;20054;-81
2022/06/01 11:30:43;;;;;;;1.60;0.57;;;15.70;99.90;;;;;;4898301;29;20036;-81
2022/06/01 11:33:15;;;;;;;1.98;0.98;;;15.50;99.90;;;;;;4872483;29;20370;-80
2022/06/01 11:35:58;;;;;;;3.25;1.00;;;15.20;99.90;;;;;;4876646;29;20119;-81
2022/06/01 11:38:35;;;;;;;1.15;0.90;;;15.00;99.90;;;;;;4906892;29;20051;-81
2022/06/01 11:41:17;;;;;;;1.55;1.00;;;14.90;99.90;;;;;;4916739;29;20095;-81
2022/06/01 11:43:55;;;;;;;1.08;0.65;;;14.90;99.90;;;;;;4907474;29;20044;-81
2022/06/01 11:46:35;;;;;;;1.02;0.90;;;15.10;99.90;;;;;;4906607;29;20048;-81
2022/06/01 11:49:10;;;;;;;2.17;0.80;;;15.20;99.90;;;;;;4900822;29;20048;-81
2022/06/01 11:51:39;;;;;;;1.42;0.60;;;15.20;99.90;;;;;;4902756;29;20048;-81
2022/06/01 11:54:14;;;;;;;0.98;0.88;;;15.20;99.90;;;;;;4902128;29;20112;-80
2022/06/01 11:56:47;;;;;;;1.83;0.80;;;15.40;99.90;;;;;;4901796;29;20123;-81
2022/06/01 11:59:43;;;;;;;1.40;1.20;;;15.60;99.90;;;;;;4887749;29;20052;-81
2022/06/01 12:02:40;;;;;;;3.13;1.30;;;15.80;99.90;;;;;;4902716;29;20112;-81
2022/06/01 12:05:12;;;;;;;;;;;16.00;99.90;;;;;;4902679;29;20087;-82
2022/06/01 12:07:53;;;;;;;2.70;2.00;;;16.10;99.90;;;;;;4901396;29;19919;-81
2022/06/01 12:10:19;;;;;;;2.33;1.80;;;16.20;99.90;;;;;;4898123;29;20044;-81
2022/06/01 12:13:21;;;;;;;1.95;1.67;;;16.30;99.90;;;;;;4881510;29;20056;-82
2022/06/01 12:16:05;;;;;;;3.40;2.30;;;16.50;99.90;;;;;;4900635;29;20036;-82
2022/06/01 12:18:35;;;;;;;5.18;2.20;;;16.80;99.90;;;;;;4888054;29;20532;-82
2022/06/01 12:21:21;;;;;;;3.42;2.42;;;17.00;99.90;;;;;;4900907;29;20059;-81
2022/06/01 12:29:59;;;;;;;4.78;2.65;;;17.70;99.90;;;;;;4899409;29;20523;-82
2022/06/01 12:32:26;;;;;;;4.65;2.88;;;17.80;99.90;;;;;;4897592;29;20115;-82
2022/06/01 12:35:06;;;;;;;4.03;2.45;;;18.10;99.90;;;;;;4888419;29;20044;-80
2022/06/01 12:37:46;;;;;;;3.08;2.22;;;18.40;99.90;;;;;;4899552;29;20040;-81
2022/06/01 12:40:17;;;;;;;3.80;2.17;;;18.70;99.90;;;;;;4885052;29;20485;-80
2022/06/01 12:42:52;;;;;;;2.42;1.65;;;18.80;99.90;;;;;;4900807;29;20048;-81
2022/06/01 12:45:20;;;;;;;2.40;2.20;;;19.00;99.90;;;;;;4918957;29;20123;-82
2022/06/01 12:47:57;;;;;;;3.03;2.22;;;19.30;99.90;;;;;;4899801;29;20047;-80
2022/06/01 12:50:24;;;;;;;2.22;1.70;;;19.50;99.90;;;;;;4917498;29;20447;-81
2022/06/01 12:53:15;;;;;;;3.35;1.70;;;19.50;99.90;;;;;;4889602;29;20056;-81
2022/06/01 12:55:42;;;;;;;3.45;1.83;;;19.20;99.90;;;;;;4897270;29;20520;-81
2022/06/01 12:58:22;;;;;;;2.72;1.67;;;19.00;99.90;;;;;;4895999;29;20186;-80
2022/06/01 13:00:56;;;;;;;1.60;1.30;;;18.80;99.90;;;;;;4896442;29;20036;-81
2022/06/01 13:03:29;;;;;;;2.38;1.60;;;18.60;99.90;;;;;;4892351;29;20048;-81
2022/06/01 13:05:58;;;;;;;2.33;1.45;;;18.30;99.90;;;;;;4887934;29;20047;-80
2022/06/01 13:08:28;;;;;;;1.88;1.27;;;18.10;99.90;;;;;;4887006;29;20496;-79
2022/06/01 13:10:54;;;;;;;2.28;1.40;;;17.90;99.90;;;;;;4900863;29;20074;-80
2022/06/01 13:13:26;;;;;;;1.95;1.20;;;17.70;99.90;;;;;;4898311;29;20040;-80
2022/06/01 13:16:04;;;;;;;1.20;1.00;;;17.50;99.90;;;;;;4896548;29;20085;-79
2022/06/01 13:18:42;;;;;;;1.70;1.20;;;17.40;99.90;;;;;;4890791;29;20049;-80
2022/06/01 13:21:36;;;;;;;1.73;1.08;;;17.30;99.90;;;;;;4885347;29;20048;-81
2022/06/01 13:24:08;;;;;;;2.13;1.20;;;17.10;99.90;;;;;;4883549;29;20071;-80
2022/06/01 13:26:42;;;;;;;1.17;0.90;;;17.20;99.90;;;;;;4897478;29;20402;-80
2022/06/01 13:29:16;;;;;;;1.33;0.90;;;17.70;99.90;;;;;;4896034;29;20036;-81